sensor_id;sensor_type;location;lat;lon;timestamp;temperature;humidity
1896;DHT22;1455;51.440;7.308;2022-11-15T00:42:58;12.10;99.90
1896;DHT22;1455;51.440;7.308;2022-11-15T01:47:19;12.60;99.90
1896;DHT22;1455;51.440;7.308;2022-11-15T01:50:21;12.60;99.90
1896;DHT22;1455;51.440;7.308;2022-11-15T01:53:48;12.60;99.90
1896;DHT22;1455;51.440;7.308;2022-11-15T08:02:08;13.20;99.90
1896;DHT22;1455;51.440;7.308;2022-11-15T08:05:03;13.20;99.90
1896;DHT22;1455;51.440;7.308;2022-11-15T08:08:08;13.20;99.90
1896;DHT22;1455;51.440;7.308;2022-11-15T08:11:36;13.10;99.90
1896;DHT22;1455;51.440;7.308;2022-11-15T08:36:03;13.40;99.90
1896;DHT22;1455;51.440;7.308;2022-11-15T08:38:51;13.40;99.90
1896;DHT22;1455;51.440;7.308;2022-11-15T15:08:34;14.30;99.90
1896;DHT22;1455;51.440;7.308;2022-11-15T15:11:21;14.40;99.90
1896;DHT22;1455;51.440;7.308;2022-11-15T15:14:08;14.40;99.90
1896;DHT22;1455;51.440;7.308;2022-11-15T15:16:53;14.50;99.90
1896;DHT22;1455;51.440;7.308;2022-11-15T15:19:39;14.50;99.90
1896;DHT22;1455;51.440;7.308;2022-11-15T15:22:25;14.50;99.90
1896;DHT22;1455;51.440;7.308;2022-11-15T15:25:23;14.50;99.90
1896;DHT22;1455;51.440;7.308;2022-11-15T15:28:11;14.50;99.90
1896;DHT22;1455;51.440;7.308;2022-11-15T15:30:57;14.50;99.90
1896;DHT22;1455;51.440;7.308;2022-11-15T15:33:43;14.50;99.90
1896;DHT22;1455;51.440;7.308;2022-11-15T15:36:28;14.30;99.90
1896;DHT22;1455;51.440;7.308;2022-11-15T15:39:14;14.30;99.90
1896;DHT22;1455;51.440;7.308;2022-11-15T15:42:01;14.30;99.90
1896;DHT22;1455;51.440;7.308;2022-11-15T15:44:48;14.40;99.90
1896;DHT22;1455;51.440;7.308;2022-11-15T15:47:33;14.30;99.90
1896;DHT22;1455;51.440;7.308;2022-11-15T15:50:31;14.30;99.90
1896;DHT22;1455;51.440;7.308;2022-11-15T15:53:19;14.30;99.90
1896;DHT22;1455;51.440;7.308;2022-11-15T15:56:05;14.20;99.90
1896;DHT22;1455;51.440;7.308;2022-11-15T15:58:53;14.40;99.90
1896;DHT22;1455;51.440;7.308;2022-11-15T16:01:40;14.30;99.90
1896;DHT22;1455;51.440;7.308;2022-11-15T16:04:34;14.30;99.90
1896;DHT22;1455;51.440;7.308;2022-11-15T16:07:34;14.10;99.90
1896;DHT22;1455;51.440;7.308;2022-11-15T16:10:34;14.20;99.90
1896;DHT22;1455;51.440;7.308;2022-11-15T16:13:33;14.20;99.90
1896;DHT22;1455;51.440;7.308;2022-11-15T16:33:55;13.90;99.90
1896;DHT22;1455;51.440;7.308;2022-11-15T16:36:55;13.90;99.90
1896;DHT22;1455;51.440;7.308;2022-11-15T16:39:55;14.10;99.90
1896;DHT22;1455;51.440;7.308;2022-11-15T16:42:55;14.00;99.90
1896;DHT22;1455;51.440;7.308;2022-11-15T16:45:54;14.00;99.90
1896;DHT22;1455;51.440;7.308;2022-11-15T16:49:23;14.30;99.90
1896;DHT22;1455;51.440;7.308;2022-11-15T16:52:12;14.40;99.90
1896;DHT22;1455;51.440;7.308;2022-11-15T16:55:12;14.20;99.90
1896;DHT22;1455;51.440;7.308;2022-11-15T16:58:02;14.20;99.90
1896;DHT22;1455;51.440;7.308;2022-11-15T17:01:10;14.20;99.90
1896;DHT22;1455;51.440;7.308;2022-11-15T22:05:30;13.70;99.90
1896;DHT22;1455;51.440;7.308;2022-11-15T22:08:17;13.70;99.90
1896;DHT22;1455;51.440;7.308;2022-11-15T22:11:04;13.60;99.90
1896;DHT22;1455;51.440;7.308;2022-11-15T22:13:50;13.60;99.90
1896;DHT22;1455;51.440;7.308;2022-11-15T22:16:35;13.80;99.90
1896;DHT22;1455;51.440;7.308;2022-11-15T22:19:22;13.70;99.90
1896;DHT22;1455;51.440;7.308;2022-11-15T22:22:12;13.80;99.90
1896;DHT22;1455;51.440;7.308;2022-11-15T22:24:59;13.80;99.90
1896;DHT22;1455;51.440;7.308;2022-11-15T22:27:44;13.90;99.90
1896;DHT22;1455;51.440;7.308;2022-11-15T22:30:30;13.70;99.90
1896;DHT22;1455;51.440;7.308;2022-11-15T22:33:18;13.60;99.90
1896;DHT22;1455;51.440;7.308;2022-11-15T22:36:14;13.60;99.90
1896;DHT22;1455;51.440;7.308;2022-11-15T22:39:02;13.70;99.90
1896;DHT22;1455;51.440;7.308;2022-11-15T22:41:48;13.70;99.90
1896;DHT22;1455;51.440;7.308;2022-11-15T22:44:38;13.70;99.90
1896;DHT22;1455;51.440;7.308;2022-11-15T22:47:27;13.60;99.90
1896;DHT22;1455;51.440;7.308;2022-11-15T22:50:13;13.60;99.90
1896;DHT22;1455;51.440;7.308;2022-11-15T22:52:59;13.50;99.90
1896;DHT22;1455;51.440;7.308;2022-11-15T22:55:50;13.50;99.90
1896;DHT22;1455;51.440;7.308;2022-11-15T22:58:36;13.50;99.90
1896;DHT22;1455;51.440;7.308;2022-11-15T23:01:30;13.40;99.90
1896;DHT22;1455;51.440;7.308;2022-11-15T23:04:32;13.30;99.90
1896;DHT22;1455;51.440;7.308;2022-11-15T23:07:27;13.30;99.90
1896;DHT22;1455;51.440;7.308;2022-11-15T23:10:30;13.40;99.90
1896;DHT22;1455;51.440;7.308;2022-11-15T23:13:43;13.40;99.90
1896;DHT22;1455;51.440;7.308;2022-11-15T23:16:31;13.50;99.90
1896;DHT22;1455;51.440;7.308;2022-11-15T23:19:33;13.60;99.90
1896;DHT22;1455;51.440;7.308;2022-11-15T23:22:24;13.50;99.90
1896;DHT22;1455;51.440;7.308;2022-11-15T23:25:30;13.40;99.90
1896;DHT22;1455;51.440;7.308;2022-11-15T23:28:22;13.50;99.90
1896;DHT22;1455;51.440;7.308;2022-11-15T23:31:21;13.60;99.90
1896;DHT22;1455;51.440;7.308;2022-11-15T23:34:24;13.50;99.90
1896;DHT22;1455;51.440;7.308;2022-11-15T23:37:16;13.50;99.90
1896;DHT22;1455;51.440;7.308;2022-11-15T23:40:11;13.40;99.90
1896;DHT22;1455;51.440;7.308;2022-11-15T23:42:59;13.40;99.90
1896;DHT22;1455;51.440;7.308;2022-11-15T23:45:54;13.40;99.90
1896;DHT22;1455;51.440;7.308;2022-11-15T23:48:44;13.40;99.90
1896;DHT22;1455;51.440;7.308;2022-11-15T23:51:50;13.40;99.90
1896;DHT22;1455;51.440;7.308;2022-11-15T23:54:57;13.40;99.90
1896;DHT22;1455;51.440;7.308;2022-11-15T23:57:53;13.30;99.90
